sensor_id;sensor_type;location;lat;lon;timestamp;temperature;humidity
23231;DHT22;11784;49.818;8.632;2023-04-07T00:01:41;12.10;83.50
23231;DHT22;11784;49.818;8.632;2023-04-07T00:04:07;12.20;83.70
23231;DHT22;11784;49.818;8.632;2023-04-07T00:06:32;12.20;83.60
23231;DHT22;11784;49.818;8.632;2023-04-07T00:08:58;12.20;83.80
23231;DHT22;11784;49.818;8.632;2023-04-07T00:11:23;12.20;83.80
23231;DHT22;11784;49.818;8.632;2023-04-07T00:13:49;12.20;83.90
23231;DHT22;11784;49.818;8.632;2023-04-07T00:16:14;12.20;83.70
23231;DHT22;11784;49.818;8.632;2023-04-07T00:18:40;12.20;83.50
23231;DHT22;11784;49.818;8.632;2023-04-07T00:21:05;12.20;83.80
23231;DHT22;11784;49.818;8.632;2023-04-07T00:23:31;12.20;84.30
23231;DHT22;11784;49.818;8.632;2023-04-07T00:25:56;12.20;84.30
23231;DHT22;11784;49.818;8.632;2023-04-07T00:28:22;12.20;84.20
23231;DHT22;11784;49.818;8.632;2023-04-07T00:30:47;12.20;83.50
23231;DHT22;11784;49.818;8.632;2023-04-07T00:33:13;12.20;83.70
23231;DHT22;11784;49.818;8.632;2023-04-07T00:35:38;12.20;84.40
23231;DHT22;11784;49.818;8.632;2023-04-07T00:38:04;12.10;84.40
23231;DHT22;11784;49.818;8.632;2023-04-07T00:40:29;12.10;84.30
23231;DHT22;11784;49.818;8.632;2023-04-07T00:42:55;12.10;83.80
23231;DHT22;11784;49.818;8.632;2023-04-07T00:45:21;12.10;83.80
23231;DHT22;11784;49.818;8.632;2023-04-07T00:47:46;12.10;84.00
23231;DHT22;11784;49.818;8.632;2023-04-07T00:50:12;12.10;82.90
23231;DHT22;11784;49.818;8.632;2023-04-07T00:52:38;12.10;82.70
23231;DHT22;11784;49.818;8.632;2023-04-07T00:55:04;12.10;82.80
23231;DHT22;11784;49.818;8.632;2023-04-07T00:57:30;12.10;81.70
23231;DHT22;11784;49.818;8.632;2023-04-07T00:59:56;12.10;81.90
23231;DHT22;11784;49.818;8.632;2023-04-07T01:02:32;12.10;82.30
23231;DHT22;11784;49.818;8.632;2023-04-07T01:05:08;12.10;82.70
23231;DHT22;11784;49.818;8.632;2023-04-07T01:10:20;12.10;83.40
23231;DHT22;11784;49.818;8.632;2023-04-07T01:13:05;12.10;83.90
23231;DHT22;11784;49.818;8.632;2023-04-07T01:15:33;12.10;83.90
23231;DHT22;11784;49.818;8.632;2023-04-07T01:18:14;12.10;83.90
23231;DHT22;11784;49.818;8.632;2023-04-07T01:20:42;12.10;83.50
23231;DHT22;11784;49.818;8.632;2023-04-07T01:23:17;12.10;83.50
23231;DHT22;11784;49.818;8.632;2023-04-07T01:25:59;12.10;83.80
23231;DHT22;11784;49.818;8.632;2023-04-07T01:28:55;12.10;83.50
23231;DHT22;11784;49.818;8.632;2023-04-07T01:31:22;12.10;83.60
23231;DHT22;11784;49.818;8.632;2023-04-07T01:33:51;12.10;84.40
23231;DHT22;11784;49.818;8.632;2023-04-07T01:36:18;12.10;84.70
23231;DHT22;11784;49.818;8.632;2023-04-07T01:38:44;12.10;83.90
23231;DHT22;11784;49.818;8.632;2023-04-07T01:41:10;12.10;83.40
23231;DHT22;11784;49.818;8.632;2023-04-07T01:43:39;12.20;84.40
23231;DHT22;11784;49.818;8.632;2023-04-07T01:46:05;12.10;84.20
23231;DHT22;11784;49.818;8.632;2023-04-07T01:48:31;12.20;84.60
23231;DHT22;11784;49.818;8.632;2023-04-07T01:50:58;12.20;84.90
23231;DHT22;11784;49.818;8.632;2023-04-07T01:53:25;12.20;84.80
23231;DHT22;11784;49.818;8.632;2023-04-07T01:55:51;12.20;84.20
23231;DHT22;11784;49.818;8.632;2023-04-07T01:58:17;12.20;84.30
23231;DHT22;11784;49.818;8.632;2023-04-07T02:00:43;12.20;84.90
23231;DHT22;11784;49.818;8.632;2023-04-07T02:03:13;12.20;84.80
23231;DHT22;11784;49.818;8.632;2023-04-07T02:05:49;12.20;84.40
23231;DHT22;11784;49.818;8.632;2023-04-07T02:08:17;12.30;84.70
23231;DHT22;11784;49.818;8.632;2023-04-07T02:10:46;12.20;84.70
23231;DHT22;11784;49.818;8.632;2023-04-07T02:13:17;12.20;84.50
23231;DHT22;11784;49.818;8.632;2023-04-07T02:15:43;12.30;84.10
23231;DHT22;11784;49.818;8.632;2023-04-07T02:18:13;12.20;83.30
23231;DHT22;11784;49.818;8.632;2023-04-07T02:20:40;12.20;83.60
23231;DHT22;11784;49.818;8.632;2023-04-07T02:23:07;12.20;83.30
23231;DHT22;11784;49.818;8.632;2023-04-07T02:25:33;12.30;83.10
23231;DHT22;11784;49.818;8.632;2023-04-07T02:27:59;12.30;83.30
23231;DHT22;11784;49.818;8.632;2023-04-07T02:30:26;12.30;83.70
23231;DHT22;11784;49.818;8.632;2023-04-07T02:32:52;12.30;82.90
23231;DHT22;11784;49.818;8.632;2023-04-07T02:35:18;12.30;83.80
23231;DHT22;11784;49.818;8.632;2023-04-07T02:37:44;12.20;82.60
23231;DHT22;11784;49.818;8.632;2023-04-07T02:40:10;12.20;82.90
23231;DHT22;11784;49.818;8.632;2023-04-07T02:42:36;12.30;83.00
23231;DHT22;11784;49.818;8.632;2023-04-07T02:45:02;12.30;82.30
23231;DHT22;11784;49.818;8.632;2023-04-07T02:47:28;12.20;81.60
23231;DHT22;11784;49.818;8.632;2023-04-07T02:49:53;12.30;82.20
23231;DHT22;11784;49.818;8.632;2023-04-07T02:52:19;12.20;81.90
23231;DHT22;11784;49.818;8.632;2023-04-07T02:54:45;12.20;81.70
23231;DHT22;11784;49.818;8.632;2023-04-07T02:57:10;12.20;81.50
23231;DHT22;11784;49.818;8.632;2023-04-07T02:59:36;12.20;82.00
23231;DHT22;11784;49.818;8.632;2023-04-07T03:02:01;12.20;82.40
23231;DHT22;11784;49.818;8.632;2023-04-07T03:04:26;12.20;82.20
23231;DHT22;11784;49.818;8.632;2023-04-07T03:06:52;12.20;81.30
23231;DHT22;11784;49.818;8.632;2023-04-07T03:09:18;12.20;81.80
23231;DHT22;11784;49.818;8.632;2023-04-07T03:11:43;12.20;81.90
23231;DHT22;11784;49.818;8.632;2023-04-07T03:14:09;12.30;81.90
23231;DHT22;11784;49.818;8.632;2023-04-07T03:16:35;12.30;81.70
23231;DHT22;11784;49.818;8.632;2023-04-07T03:19:00;12.20;81.40
23231;DHT22;11784;49.818;8.632;2023-04-07T03:21:25;12.30;81.50
23231;DHT22;11784;49.818;8.632;2023-04-07T03:23:53;12.30;81.30
23231;DHT22;11784;49.818;8.632;2023-04-07T03:26:19;12.30;81.20
23231;DHT22;11784;49.818;8.632;2023-04-07T03:28:46;12.30;81.20
23231;DHT22;11784;49.818;8.632;2023-04-07T03:31:11;12.30;80.80
23231;DHT22;11784;49.818;8.632;2023-04-07T03:33:37;12.30;80.40
23231;DHT22;11784;49.818;8.632;2023-04-07T03:36:02;12.30;80.80
23231;DHT22;11784;49.818;8.632;2023-04-07T03:38:28;12.30;80.50
23231;DHT22;11784;49.818;8.632;2023-04-07T03:40:53;12.30;80.60
23231;DHT22;11784;49.818;8.632;2023-04-07T03:43:19;12.20;80.80
23231;DHT22;11784;49.818;8.632;2023-04-07T03:45:45;12.20;80.70
23231;DHT22;11784;49.818;8.632;2023-04-07T03:48:11;12.30;80.40
23231;DHT22;11784;49.818;8.632;2023-04-07T03:50:38;12.20;80.20
23231;DHT22;11784;49.818;8.632;2023-04-07T03:53:04;12.20;80.60
23231;DHT22;11784;49.818;8.632;2023-04-07T03:55:29;12.30;80.40
23231;DHT22;11784;49.818;8.632;2023-04-07T03:57:55;12.20;80.40
23231;DHT22;11784;49.818;8.632;2023-04-07T04:00:21;12.20;80.30
23231;DHT22;11784;49.818;8.632;2023-04-07T04:02:46;12.20;79.80
23231;DHT22;11784;49.818;8.632;2023-04-07T04:05:12;12.20;80.30
23231;DHT22;11784;49.818;8.632;2023-04-07T04:07:37;12.20;80.00
23231;DHT22;11784;49.818;8.632;2023-04-07T04:10:03;12.20;80.00
23231;DHT22;11784;49.818;8.632;2023-04-07T04:12:29;12.20;80.10
23231;DHT22;11784;49.818;8.632;2023-04-07T04:14:54;12.20;80.60
23231;DHT22;11784;49.818;8.632;2023-04-07T04:17:20;12.20;79.70
23231;DHT22;11784;49.818;8.632;2023-04-07T04:19:45;12.30;79.90
23231;DHT22;11784;49.818;8.632;2023-04-07T04:22:11;12.30;79.90
23231;DHT22;11784;49.818;8.632;2023-04-07T04:24:36;12.30;80.10
23231;DHT22;11784;49.818;8.632;2023-04-07T04:27:02;12.30;80.10
23231;DHT22;11784;49.818;8.632;2023-04-07T04:29:27;12.30;79.90
23231;DHT22;11784;49.818;8.632;2023-04-07T04:31:53;12.30;80.40
23231;DHT22;11784;49.818;8.632;2023-04-07T04:34:19;12.30;80.30
23231;DHT22;11784;49.818;8.632;2023-04-07T04:36:44;12.30;80.50
23231;DHT22;11784;49.818;8.632;2023-04-07T04:39:10;12.30;80.50
23231;DHT22;11784;49.818;8.632;2023-04-07T04:41:35;12.30;80.40
23231;DHT22;11784;49.818;8.632;2023-04-07T04:44:01;12.30;80.40
23231;DHT22;11784;49.818;8.632;2023-04-07T04:46:26;12.30;80.30
23231;DHT22;11784;49.818;8.632;2023-04-07T04:48:52;12.30;80.00
23231;DHT22;11784;49.818;8.632;2023-04-07T04:51:18;12.30;80.20
23231;DHT22;11784;49.818;8.632;2023-04-07T04:53:44;12.30;80.10
23231;DHT22;11784;49.818;8.632;2023-04-07T04:56:10;12.30;79.50
23231;DHT22;11784;49.818;8.632;2023-04-07T04:58:36;12.30;80.00
23231;DHT22;11784;49.818;8.632;2023-04-07T05:01:04;12.30;80.10
23231;DHT22;11784;49.818;8.632;2023-04-07T05:03:30;12.30;80.00
23231;DHT22;11784;49.818;8.632;2023-04-07T05:05:55;12.30;80.10
23231;DHT22;11784;49.818;8.632;2023-04-07T05:08:21;12.30;80.30
23231;DHT22;11784;49.818;8.632;2023-04-07T05:10:47;12.30;80.50
23231;DHT22;11784;49.818;8.632;2023-04-07T05:13:12;12.30;80.60
23231;DHT22;11784;49.818;8.632;2023-04-07T05:15:40;12.30;80.80
23231;DHT22;11784;49.818;8.632;2023-04-07T05:18:06;12.40;81.30
23231;DHT22;11784;49.818;8.632;2023-04-07T05:20:31;12.40;81.00
23231;DHT22;11784;49.818;8.632;2023-04-07T05:22:57;12.40;81.30
23231;DHT22;11784;49.818;8.632;2023-04-07T05:25:22;12.40;80.80
23231;DHT22;11784;49.818;8.632;2023-04-07T05:27:48;12.40;80.50
23231;DHT22;11784;49.818;8.632;2023-04-07T05:30:13;12.40;80.60
23231;DHT22;11784;49.818;8.632;2023-04-07T05:32:39;12.40;81.70
23231;DHT22;11784;49.818;8.632;2023-04-07T05:35:05;12.40;80.70
23231;DHT22;11784;49.818;8.632;2023-04-07T05:37:31;12.40;80.80
23231;DHT22;11784;49.818;8.632;2023-04-07T05:39:56;12.40;80.60
23231;DHT22;11784;49.818;8.632;2023-04-07T05:42:22;12.40;79.70
23231;DHT22;11784;49.818;8.632;2023-04-07T05:44:47;12.40;80.20
23231;DHT22;11784;49.818;8.632;2023-04-07T05:47:13;12.40;80.50
23231;DHT22;11784;49.818;8.632;2023-04-07T05:49:39;12.40;80.40
23231;DHT22;11784;49.818;8.632;2023-04-07T05:52:10;12.40;80.40
23231;DHT22;11784;49.818;8.632;2023-04-07T05:54:36;12.40;80.10
23231;DHT22;11784;49.818;8.632;2023-04-07T05:57:01;12.40;80.40
23231;DHT22;11784;49.818;8.632;2023-04-07T05:59:28;12.40;80.50
23231;DHT22;11784;49.818;8.632;2023-04-07T06:01:53;12.40;80.50
23231;DHT22;11784;49.818;8.632;2023-04-07T06:04:19;12.40;80.50
23231;DHT22;11784;49.818;8.632;2023-04-07T06:06:44;12.50;80.30
23231;DHT22;11784;49.818;8.632;2023-04-07T06:09:10;12.50;80.50
23231;DHT22;11784;49.818;8.632;2023-04-07T06:11:35;12.50;79.60
23231;DHT22;11784;49.818;8.632;2023-04-07T06:14:01;12.50;79.40
23231;DHT22;11784;49.818;8.632;2023-04-07T06:16:26;12.50;79.40
23231;DHT22;11784;49.818;8.632;2023-04-07T06:18:52;12.50;79.80
23231;DHT22;11784;49.818;8.632;2023-04-07T06:21:17;12.50;79.60
23231;DHT22;11784;49.818;8.632;2023-04-07T06:23:43;12.40;79.70
23231;DHT22;11784;49.818;8.632;2023-04-07T06:26:10;12.50;80.20
23231;DHT22;11784;49.818;8.632;2023-04-07T06:28:36;12.50;80.30
23231;DHT22;11784;49.818;8.632;2023-04-07T06:31:02;12.60;80.30
23231;DHT22;11784;49.818;8.632;2023-04-07T06:33:27;12.60;80.10
23231;DHT22;11784;49.818;8.632;2023-04-07T06:35:53;12.60;79.90
23231;DHT22;11784;49.818;8.632;2023-04-07T06:38:18;12.60;79.10
23231;DHT22;11784;49.818;8.632;2023-04-07T06:40:44;12.70;79.60
23231;DHT22;11784;49.818;8.632;2023-04-07T06:43:09;12.70;79.50
23231;DHT22;11784;49.818;8.632;2023-04-07T06:45:35;12.70;79.60
23231;DHT22;11784;49.818;8.632;2023-04-07T06:48:00;12.80;79.80
23231;DHT22;11784;49.818;8.632;2023-04-07T06:50:26;12.80;79.50
23231;DHT22;11784;49.818;8.632;2023-04-07T06:52:51;12.80;79.70
23231;DHT22;11784;49.818;8.632;2023-04-07T06:55:17;12.90;79.60
23231;DHT22;11784;49.818;8.632;2023-04-07T06:57:42;12.90;79.40
23231;DHT22;11784;49.818;8.632;2023-04-07T07:00:08;12.90;79.20
23231;DHT22;11784;49.818;8.632;2023-04-07T07:02:35;13.00;78.90
23231;DHT22;11784;49.818;8.632;2023-04-07T07:05:00;13.00;78.50
23231;DHT22;11784;49.818;8.632;2023-04-07T07:07:28;13.00;78.30
23231;DHT22;11784;49.818;8.632;2023-04-07T07:09:53;13.00;77.70
23231;DHT22;11784;49.818;8.632;2023-04-07T07:12:19;13.00;78.30
23231;DHT22;11784;49.818;8.632;2023-04-07T07:14:44;13.00;78.50
23231;DHT22;11784;49.818;8.632;2023-04-07T07:17:10;13.00;78.50
23231;DHT22;11784;49.818;8.632;2023-04-07T07:19:35;13.00;78.40
23231;DHT22;11784;49.818;8.632;2023-04-07T07:22:01;12.90;78.50
23231;DHT22;11784;49.818;8.632;2023-04-07T07:24:28;12.90;78.60
23231;DHT22;11784;49.818;8.632;2023-04-07T07:26:54;12.90;78.50
23231;DHT22;11784;49.818;8.632;2023-04-07T07:29:21;12.90;78.90
23231;DHT22;11784;49.818;8.632;2023-04-07T07:31:47;13.00;79.30
23231;DHT22;11784;49.818;8.632;2023-04-07T07:34:12;13.00;79.70
23231;DHT22;11784;49.818;8.632;2023-04-07T07:36:38;13.00;79.70
23231;DHT22;11784;49.818;8.632;2023-04-07T07:39:04;13.10;79.40
23231;DHT22;11784;49.818;8.632;2023-04-07T07:41:30;13.10;79.00
23231;DHT22;11784;49.818;8.632;2023-04-07T07:43:55;13.10;79.00
23231;DHT22;11784;49.818;8.632;2023-04-07T07:46:21;13.20;79.70
23231;DHT22;11784;49.818;8.632;2023-04-07T07:48:48;13.20;78.40
23231;DHT22;11784;49.818;8.632;2023-04-07T07:51:14;13.20;78.40
23231;DHT22;11784;49.818;8.632;2023-04-07T07:53:40;13.20;78.30
23231;DHT22;11784;49.818;8.632;2023-04-07T07:56:05;13.20;78.70
23231;DHT22;11784;49.818;8.632;2023-04-07T07:58:31;13.20;78.60
23231;DHT22;11784;49.818;8.632;2023-04-07T08:00:56;13.20;79.10
23231;DHT22;11784;49.818;8.632;2023-04-07T08:03:22;13.30;79.30
23231;DHT22;11784;49.818;8.632;2023-04-07T08:05:48;13.30;79.40
23231;DHT22;11784;49.818;8.632;2023-04-07T08:08:14;13.30;79.10
23231;DHT22;11784;49.818;8.632;2023-04-07T08:10:40;13.40;79.10
23231;DHT22;11784;49.818;8.632;2023-04-07T08:13:05;13.50;78.90
23231;DHT22;11784;49.818;8.632;2023-04-07T08:15:31;13.50;78.80
23231;DHT22;11784;49.818;8.632;2023-04-07T08:17:57;13.60;79.40
23231;DHT22;11784;49.818;8.632;2023-04-07T08:20:24;13.70;79.20
23231;DHT22;11784;49.818;8.632;2023-04-07T08:22:50;13.70;78.10
23231;DHT22;11784;49.818;8.632;2023-04-07T08:25:16;13.80;77.90
23231;DHT22;11784;49.818;8.632;2023-04-07T08:27:42;13.90;78.10
23231;DHT22;11784;49.818;8.632;2023-04-07T08:30:08;13.90;76.80
23231;DHT22;11784;49.818;8.632;2023-04-07T08:32:43;14.00;76.80
23231;DHT22;11784;49.818;8.632;2023-04-07T08:35:10;14.00;76.60
23231;DHT22;11784;49.818;8.632;2023-04-07T08:37:37;14.00;76.90
23231;DHT22;11784;49.818;8.632;2023-04-07T08:40:03;14.00;76.90
23231;DHT22;11784;49.818;8.632;2023-04-07T08:42:32;14.00;77.20
23231;DHT22;11784;49.818;8.632;2023-04-07T08:45:05;14.00;76.90
23231;DHT22;11784;49.818;8.632;2023-04-07T08:47:33;14.00;77.20
23231;DHT22;11784;49.818;8.632;2023-04-07T08:50:10;14.00;77.40
23231;DHT22;11784;49.818;8.632;2023-04-07T08:52:43;14.10;77.30
23231;DHT22;11784;49.818;8.632;2023-04-07T08:55:10;14.10;76.90
23231;DHT22;11784;49.818;8.632;2023-04-07T08:57:36;14.10;77.00
23231;DHT22;11784;49.818;8.632;2023-04-07T09:00:03;14.10;77.00
23231;DHT22;11784;49.818;8.632;2023-04-07T09:02:41;14.10;77.20
23231;DHT22;11784;49.818;8.632;2023-04-07T09:05:09;14.20;77.30
23231;DHT22;11784;49.818;8.632;2023-04-07T09:07:37;14.20;76.80
23231;DHT22;11784;49.818;8.632;2023-04-07T09:10:05;14.20;76.70
23231;DHT22;11784;49.818;8.632;2023-04-07T09:12:32;14.20;76.70
23231;DHT22;11784;49.818;8.632;2023-04-07T09:14:58;14.20;76.70
23231;DHT22;11784;49.818;8.632;2023-04-07T09:17:27;14.20;76.70
23231;DHT22;11784;49.818;8.632;2023-04-07T09:19:57;14.20;77.00
23231;DHT22;11784;49.818;8.632;2023-04-07T09:22:40;14.20;76.80
23231;DHT22;11784;49.818;8.632;2023-04-07T09:25:23;14.20;76.90
23231;DHT22;11784;49.818;8.632;2023-04-07T09:27:59;14.30;77.30
23231;DHT22;11784;49.818;8.632;2023-04-07T09:30:25;14.40;77.60
23231;DHT22;11784;49.818;8.632;2023-04-07T09:32:51;14.40;77.40
23231;DHT22;11784;49.818;8.632;2023-04-07T09:35:17;14.50;77.30
23231;DHT22;11784;49.818;8.632;2023-04-07T09:37:42;14.60;77.90
23231;DHT22;11784;49.818;8.632;2023-04-07T09:40:09;14.60;78.00
23231;DHT22;11784;49.818;8.632;2023-04-07T09:42:44;14.70;77.70
23231;DHT22;11784;49.818;8.632;2023-04-07T09:45:10;14.70;77.10
23231;DHT22;11784;49.818;8.632;2023-04-07T09:47:36;14.80;76.40
23231;DHT22;11784;49.818;8.632;2023-04-07T09:50:02;14.80;76.10
23231;DHT22;11784;49.818;8.632;2023-04-07T09:52:50;14.90;76.00
23231;DHT22;11784;49.818;8.632;2023-04-07T09:55:19;14.90;75.20
23231;DHT22;11784;49.818;8.632;2023-04-07T09:57:47;14.90;75.00
23231;DHT22;11784;49.818;8.632;2023-04-07T10:00:13;15.00;74.70
23231;DHT22;11784;49.818;8.632;2023-04-07T10:02:40;15.00;74.90
23231;DHT22;11784;49.818;8.632;2023-04-07T10:05:07;15.00;75.50
23231;DHT22;11784;49.818;8.632;2023-04-07T10:07:34;15.10;75.20
23231;DHT22;11784;49.818;8.632;2023-04-07T10:09:59;15.10;75.20
23231;DHT22;11784;49.818;8.632;2023-04-07T10:12:26;15.10;75.60
23231;DHT22;11784;49.818;8.632;2023-04-07T10:14:52;15.10;75.50
23231;DHT22;11784;49.818;8.632;2023-04-07T10:17:19;15.20;74.60
23231;DHT22;11784;49.818;8.632;2023-04-07T10:19:48;15.30;74.30
23231;DHT22;11784;49.818;8.632;2023-04-07T10:22:14;15.30;74.10
23231;DHT22;11784;49.818;8.632;2023-04-07T10:27:24;15.40;73.50
23231;DHT22;11784;49.818;8.632;2023-04-07T10:29:52;15.40;73.00
23231;DHT22;11784;49.818;8.632;2023-04-07T10:32:18;15.40;72.80
23231;DHT22;11784;49.818;8.632;2023-04-07T10:37:16;15.30;73.30
23231;DHT22;11784;49.818;8.632;2023-04-07T10:39:47;15.20;73.30
23231;DHT22;11784;49.818;8.632;2023-04-07T10:45:04;15.10;73.80
23231;DHT22;11784;49.818;8.632;2023-04-07T10:47:30;15.10;73.60
23231;DHT22;11784;49.818;8.632;2023-04-07T10:50:15;15.10;73.80
23231;DHT22;11784;49.818;8.632;2023-04-07T10:52:43;15.10;74.50
23231;DHT22;11784;49.818;8.632;2023-04-07T10:58:20;15.10;74.70
23231;DHT22;11784;49.818;8.632;2023-04-07T11:03:32;15.00;73.90
23231;DHT22;11784;49.818;8.632;2023-04-07T11:06:06;14.90;74.70
23231;DHT22;11784;49.818;8.632;2023-04-07T11:08:34;14.90;76.20
23231;DHT22;11784;49.818;8.632;2023-04-07T11:10:59;14.90;77.20
23231;DHT22;11784;49.818;8.632;2023-04-07T11:13:26;14.80;77.80
23231;DHT22;11784;49.818;8.632;2023-04-07T11:15:52;14.80;78.10
23231;DHT22;11784;49.818;8.632;2023-04-07T11:18:21;14.80;78.20
23231;DHT22;11784;49.818;8.632;2023-04-07T11:20:55;14.70;78.30
23231;DHT22;11784;49.818;8.632;2023-04-07T11:23:22;14.80;78.50
23231;DHT22;11784;49.818;8.632;2023-04-07T11:25:50;14.70;78.90
23231;DHT22;11784;49.818;8.632;2023-04-07T11:28:16;14.70;78.60
23231;DHT22;11784;49.818;8.632;2023-04-07T11:30:51;14.80;78.20
23231;DHT22;11784;49.818;8.632;2023-04-07T11:33:22;14.80;78.30
23231;DHT22;11784;49.818;8.632;2023-04-07T11:35:57;14.90;78.90
23231;DHT22;11784;49.818;8.632;2023-04-07T11:38:25;14.90;78.30
23231;DHT22;11784;49.818;8.632;2023-04-07T11:40:52;15.10;78.60
23231;DHT22;11784;49.818;8.632;2023-04-07T11:43:20;15.10;78.90
23231;DHT22;11784;49.818;8.632;2023-04-07T11:46:01;15.30;78.90
23231;DHT22;11784;49.818;8.632;2023-04-07T11:48:29;15.30;76.50
23231;DHT22;11784;49.818;8.632;2023-04-07T11:50:54;15.40;75.00
23231;DHT22;11784;49.818;8.632;2023-04-07T11:53:30;15.40;75.10
23231;DHT22;11784;49.818;8.632;2023-04-07T11:56:10;15.40;75.70
23231;DHT22;11784;49.818;8.632;2023-04-07T11:58:46;15.20;76.10
23231;DHT22;11784;49.818;8.632;2023-04-07T12:01:12;15.10;76.90
23231;DHT22;11784;49.818;8.632;2023-04-07T12:04:02;15.10;77.90
23231;DHT22;11784;49.818;8.632;2023-04-07T12:06:31;15.00;79.40
23231;DHT22;11784;49.818;8.632;2023-04-07T12:09:00;15.00;80.40
23231;DHT22;11784;49.818;8.632;2023-04-07T12:11:26;15.10;81.60
23231;DHT22;11784;49.818;8.632;2023-04-07T12:13:52;15.10;82.40
23231;DHT22;11784;49.818;8.632;2023-04-07T12:16:19;15.20;82.20
23231;DHT22;11784;49.818;8.632;2023-04-07T12:18:45;15.30;81.80
23231;DHT22;11784;49.818;8.632;2023-04-07T12:21:10;15.40;81.90
23231;DHT22;11784;49.818;8.632;2023-04-07T12:23:36;15.50;82.50
23231;DHT22;11784;49.818;8.632;2023-04-07T12:26:02;15.60;82.60
23231;DHT22;11784;49.818;8.632;2023-04-07T12:28:27;15.60;81.20
23231;DHT22;11784;49.818;8.632;2023-04-07T12:30:53;15.60;80.80
23231;DHT22;11784;49.818;8.632;2023-04-07T12:33:19;15.50;80.70
23231;DHT22;11784;49.818;8.632;2023-04-07T12:35:45;15.50;80.90
23231;DHT22;11784;49.818;8.632;2023-04-07T12:38:11;15.40;80.50
23231;DHT22;11784;49.818;8.632;2023-04-07T12:40:36;15.30;80.00
23231;DHT22;11784;49.818;8.632;2023-04-07T12:43:04;15.20;80.50
23231;DHT22;11784;49.818;8.632;2023-04-07T12:45:30;15.00;81.00
23231;DHT22;11784;49.818;8.632;2023-04-07T12:47:56;14.90;81.70
23231;DHT22;11784;49.818;8.632;2023-04-07T12:50:23;14.90;82.30
23231;DHT22;11784;49.818;8.632;2023-04-07T12:52:50;14.80;82.90
23231;DHT22;11784;49.818;8.632;2023-04-07T12:55:19;14.90;82.70
23231;DHT22;11784;49.818;8.632;2023-04-07T12:57:45;14.90;82.20
23231;DHT22;11784;49.818;8.632;2023-04-07T13:00:15;15.00;82.00
23231;DHT22;11784;49.818;8.632;2023-04-07T13:02:41;15.00;81.70
23231;DHT22;11784;49.818;8.632;2023-04-07T13:05:08;15.10;81.70
23231;DHT22;11784;49.818;8.632;2023-04-07T13:07:33;15.20;81.80
23231;DHT22;11784;49.818;8.632;2023-04-07T13:10:00;15.30;79.70
23231;DHT22;11784;49.818;8.632;2023-04-07T13:12:26;15.40;79.20
23231;DHT22;11784;49.818;8.632;2023-04-07T13:14:52;15.60;78.00
23231;DHT22;11784;49.818;8.632;2023-04-07T13:17:18;15.80;78.60
23231;DHT22;11784;49.818;8.632;2023-04-07T13:19:44;16.00;78.20
23231;DHT22;11784;49.818;8.632;2023-04-07T13:22:11;16.20;75.40
23231;DHT22;11784;49.818;8.632;2023-04-07T13:24:38;16.30;74.80
23231;DHT22;11784;49.818;8.632;2023-04-07T13:27:03;16.40;74.00
23231;DHT22;11784;49.818;8.632;2023-04-07T13:29:29;16.60;73.50
23231;DHT22;11784;49.818;8.632;2023-04-07T13:32:10;16.70;72.90
23231;DHT22;11784;49.818;8.632;2023-04-07T13:34:38;16.70;73.20
23231;DHT22;11784;49.818;8.632;2023-04-07T13:37:04;16.70;72.30
23231;DHT22;11784;49.818;8.632;2023-04-07T13:39:30;16.70;72.30
23231;DHT22;11784;49.818;8.632;2023-04-07T13:41:56;16.70;71.40
23231;DHT22;11784;49.818;8.632;2023-04-07T13:44:22;16.60;71.20
23231;DHT22;11784;49.818;8.632;2023-04-07T13:46:48;16.60;71.90
23231;DHT22;11784;49.818;8.632;2023-04-07T13:49:13;16.50;72.30
23231;DHT22;11784;49.818;8.632;2023-04-07T13:51:39;16.40;73.20
23231;DHT22;11784;49.818;8.632;2023-04-07T13:54:05;16.40;73.30
23231;DHT22;11784;49.818;8.632;2023-04-07T13:56:31;16.30;73.50
23231;DHT22;11784;49.818;8.632;2023-04-07T13:58:57;16.30;73.90
23231;DHT22;11784;49.818;8.632;2023-04-07T14:01:22;16.30;74.60
23231;DHT22;11784;49.818;8.632;2023-04-07T14:03:48;16.30;74.40
23231;DHT22;11784;49.818;8.632;2023-04-07T14:06:14;16.20;74.40
23231;DHT22;11784;49.818;8.632;2023-04-07T14:08:39;16.10;74.70
23231;DHT22;11784;49.818;8.632;2023-04-07T14:11:05;15.90;75.50
23231;DHT22;11784;49.818;8.632;2023-04-07T14:13:30;15.70;76.60
23231;DHT22;11784;49.818;8.632;2023-04-07T14:15:56;15.50;77.50
23231;DHT22;11784;49.818;8.632;2023-04-07T14:18:22;15.40;78.20
23231;DHT22;11784;49.818;8.632;2023-04-07T14:20:48;15.20;79.20
23231;DHT22;11784;49.818;8.632;2023-04-07T14:23:13;15.10;79.50
23231;DHT22;11784;49.818;8.632;2023-04-07T14:25:39;15.00;80.70
23231;DHT22;11784;49.818;8.632;2023-04-07T14:28:05;14.80;80.90
23231;DHT22;11784;49.818;8.632;2023-04-07T14:30:35;14.70;81.80
23231;DHT22;11784;49.818;8.632;2023-04-07T14:33:03;14.60;82.20
23231;DHT22;11784;49.818;8.632;2023-04-07T14:35:28;14.50;83.00
23231;DHT22;11784;49.818;8.632;2023-04-07T14:37:54;14.40;83.60
23231;DHT22;11784;49.818;8.632;2023-04-07T14:40:20;14.40;83.80
23231;DHT22;11784;49.818;8.632;2023-04-07T14:42:45;14.40;84.20
23231;DHT22;11784;49.818;8.632;2023-04-07T14:45:11;14.50;84.80
23231;DHT22;11784;49.818;8.632;2023-04-07T14:47:37;14.50;84.40
23231;DHT22;11784;49.818;8.632;2023-04-07T14:50:03;14.50;84.00
23231;DHT22;11784;49.818;8.632;2023-04-07T14:52:28;14.60;83.80
23231;DHT22;11784;49.818;8.632;2023-04-07T14:54:54;14.60;84.00
23231;DHT22;11784;49.818;8.632;2023-04-07T14:57:20;14.60;83.90
23231;DHT22;11784;49.818;8.632;2023-04-07T14:59:46;14.60;84.00
23231;DHT22;11784;49.818;8.632;2023-04-07T15:02:12;14.60;84.30
23231;DHT22;11784;49.818;8.632;2023-04-07T15:04:37;14.70;84.00
23231;DHT22;11784;49.818;8.632;2023-04-07T15:07:03;14.60;83.60
23231;DHT22;11784;49.818;8.632;2023-04-07T15:09:29;14.60;83.90
23231;DHT22;11784;49.818;8.632;2023-04-07T15:11:56;14.70;84.50
23231;DHT22;11784;49.818;8.632;2023-04-07T15:14:21;14.80;84.40
23231;DHT22;11784;49.818;8.632;2023-04-07T15:16:47;14.80;84.60
23231;DHT22;11784;49.818;8.632;2023-04-07T15:19:14;15.00;84.80
23231;DHT22;11784;49.818;8.632;2023-04-07T15:21:40;15.10;84.50
23231;DHT22;11784;49.818;8.632;2023-04-07T15:24:06;15.20;83.60
23231;DHT22;11784;49.818;8.632;2023-04-07T15:26:32;15.30;82.80
23231;DHT22;11784;49.818;8.632;2023-04-07T15:28:57;15.40;82.20
23231;DHT22;11784;49.818;8.632;2023-04-07T15:31:23;15.40;82.40
23231;DHT22;11784;49.818;8.632;2023-04-07T15:33:51;15.50;81.60
23231;DHT22;11784;49.818;8.632;2023-04-07T15:36:17;15.60;80.70
23231;DHT22;11784;49.818;8.632;2023-04-07T15:38:42;15.70;80.50
23231;DHT22;11784;49.818;8.632;2023-04-07T15:41:08;15.80;79.70
23231;DHT22;11784;49.818;8.632;2023-04-07T15:43:36;15.90;79.10
23231;DHT22;11784;49.818;8.632;2023-04-07T15:46:01;16.00;78.70